createdAt,value
2022-11-27T00:02:19.356Z,75.08
2022-11-27T00:04:51.471Z,75.14
2022-11-27T00:07:23.419Z,75.23
2022-11-27T00:09:55.366Z,75.49
2022-11-27T00:12:27.252Z,75.30
2022-11-27T00:14:59.253Z,75.61
2022-11-27T00:17:31.232Z,75.52
2022-11-27T00:20:03.141Z,75.56
2022-11-27T00:22:35.080Z,75.56
2022-11-27T00:25:09.957Z,75.65
2022-11-27T00:27:41.901Z,75.01
2022-11-27T00:30:15.971Z,75.25
2022-11-27T00:32:48.234Z,75.08
2022-11-27T00:35:20.355Z,75.09
2022-11-27T00:37:52.317Z,75.61
2022-11-27T00:40:24.208Z,75.59
2022-11-27T00:42:56.140Z,75.67
2022-11-27T00:45:28.152Z,75.68
2022-11-27T00:48:00.144Z,75.63
2022-11-27T00:50:32.489Z,76.30
2022-11-27T00:53:04.481Z,76.05
2022-11-27T00:55:36.442Z,76.06
2022-11-27T00:58:08.403Z,75.97
2022-11-27T01:00:40.393Z,75.98
2022-11-27T01:03:12.643Z,75.60
2022-11-27T01:05:44.997Z,75.78
2022-11-27T01:08:16.975Z,75.83
2022-11-27T01:10:54.936Z,75.84
2022-11-27T01:13:29.989Z,75.80
2022-11-27T01:16:03.290Z,75.77
2022-11-27T01:18:36.554Z,76.06
2022-11-27T01:21:09.106Z,76.24
2022-11-27T01:23:41.507Z,75.97
2022-11-27T01:26:13.903Z,76.10
2022-11-27T01:28:46.869Z,76.34
2022-11-27T01:31:20.816Z,76.54
2022-11-27T01:33:55.964Z,76.02
2022-11-27T01:36:28.617Z,76.41
2022-11-27T01:39:01.046Z,76.22
2022-11-27T01:41:35.236Z,76.20
2022-11-27T01:44:44.393Z,75.99
2022-11-27T01:47:24.114Z,76.22
2022-11-27T01:49:59.867Z,76.38
2022-11-27T01:52:36.617Z,76.44
2022-11-27T01:55:13.879Z,76.57
2022-11-27T01:57:49.632Z,76.63
2022-11-27T02:00:22.613Z,76.62
2022-11-27T02:02:55.161Z,76.64
2022-11-27T02:05:29.340Z,76.54
2022-11-27T02:08:04.225Z,76.29
2022-11-27T02:10:42.428Z,76.41
2022-11-27T02:13:19.050Z,76.42
2022-11-27T02:15:57.524Z,76.38
2022-11-27T02:18:38.594Z,76.54
2022-11-27T02:21:18.469Z,76.56
2022-11-27T02:24:08.990Z,76.82
2022-11-27T02:27:04.654Z,76.82
2022-11-27T02:29:37.877Z,76.83
2022-11-27T02:32:17.010Z,76.84
2022-11-27T02:34:56.272Z,77.01
2022-11-27T02:37:35.635Z,76.74
2022-11-27T02:40:13.866Z,76.76
2022-11-27T02:42:50.387Z,76.51
2022-11-27T02:45:29.340Z,76.55
2022-11-27T02:48:02.378Z,76.76
2022-11-27T02:50:37.216Z,76.61
2022-11-27T02:53:13.653Z,76.62
2022-11-27T02:55:47.894Z,76.83
2022-11-27T02:58:23.978Z,77.17
2022-11-27T03:00:58.732Z,77.09
2022-11-27T03:03:35.432Z,77.36
2022-11-27T03:06:12.950Z,77.35
2022-11-27T03:08:53.468Z,77.46
2022-11-27T03:11:27.808Z,77.37
2022-11-27T03:14:04.409Z,77.19
2022-11-27T03:16:43.998Z,77.13
2022-11-27T03:19:21.057Z,76.99
2022-11-27T03:21:57.144Z,77.00
2022-11-27T03:24:30.360Z,77.01
2022-11-27T03:27:02.862Z,77.04
2022-11-27T03:29:39.689Z,77.06
2022-11-27T03:32:12.316Z,77.21
2022-11-27T03:34:44.564Z,77.44
2022-11-27T03:37:16.832Z,77.26
2022-11-27T03:39:49.097Z,77.64
2022-11-27T03:42:28.003Z,77.48
2022-11-27T03:45:08.159Z,77.62
2022-11-27T03:47:55.816Z,77.62
2022-11-27T03:50:41.936Z,77.54
2022-11-27T03:53:25.984Z,77.68
2022-11-27T03:56:09.770Z,77.34
2022-11-27T03:58:48.270Z,77.18
2022-11-27T04:01:24.619Z,77.56
2022-11-27T04:03:56.654Z,77.38
2022-11-27T04:06:28.687Z,77.56
2022-11-27T04:09:00.655Z,77.49
2022-11-27T04:11:32.691Z,77.55
2022-11-27T04:14:05.243Z,77.70
2022-11-27T04:16:37.280Z,77.82
2022-11-27T04:19:09.638Z,77.72
2022-11-27T04:21:41.568Z,77.84
2022-11-27T04:24:13.481Z,77.85
2022-11-27T04:26:45.418Z,77.67
2022-11-27T04:29:18.011Z,77.54
2022-11-27T04:31:50.080Z,77.62
2022-11-27T04:34:22.179Z,77.60
2022-11-27T04:36:54.143Z,77.54
2022-11-27T04:39:26.028Z,77.30
2022-11-27T04:41:58.043Z,77.63
2022-11-27T04:44:30.006Z,78.00
2022-11-27T04:47:02.775Z,77.75
2022-11-27T04:49:34.885Z,78.10
2022-11-27T04:52:07.366Z,78.13
2022-11-27T04:54:39.746Z,78.40
2022-11-27T04:57:11.909Z,78.33
2022-11-27T04:59:44.199Z,78.10
2022-11-27T05:02:16.185Z,78.15
2022-11-27T05:04:48.273Z,77.88
2022-11-27T05:07:20.264Z,77.69
2022-11-27T05:09:52.380Z,77.61
2022-11-27T05:12:24.369Z,77.65
2022-11-27T05:14:57.961Z,77.97
2022-11-27T05:17:32.676Z,77.91
2022-11-27T05:20:04.996Z,78.28
2022-11-27T05:22:37.010Z,78.28
2022-11-27T05:25:13.178Z,78.36
2022-11-27T05:27:45.058Z,78.32
2022-11-27T05:30:17.329Z,78.47
2022-11-27T05:32:49.294Z,78.31
2022-11-27T05:35:21.179Z,78.62
2022-11-27T05:37:53.118Z,78.34
2022-11-27T05:40:25.028Z,78.12
2022-11-27T05:42:56.991Z,78.00
2022-11-27T05:45:29.057Z,78.16
2022-11-27T05:48:00.996Z,78.09
2022-11-27T05:50:33.191Z,78.02
2022-11-27T05:53:05.155Z,78.17
2022-11-27T05:55:37.039Z,78.49
2022-11-27T05:58:09.028Z,78.47
2022-11-27T06:00:40.999Z,78.73
2022-11-27T06:03:13.396Z,78.61
2022-11-27T06:05:45.380Z,78.50
2022-11-27T06:08:17.317Z,78.69
2022-11-27T06:10:50.295Z,78.62
2022-11-27T06:13:22.217Z,78.45
2022-11-27T06:15:54.107Z,78.01
2022-11-27T06:18:26.094Z,78.20
2022-11-27T06:20:58.004Z,78.29
2022-11-27T06:23:30.300Z,78.28
2022-11-27T06:26:10.251Z,78.28
2022-11-27T06:28:42.650Z,78.50
2022-11-27T06:31:18.297Z,78.29
2022-11-27T06:33:51.696Z,78.89
2022-11-27T06:36:24.608Z,78.59
2022-11-27T06:38:57.035Z,78.64
2022-11-27T06:41:29.311Z,78.78
2022-11-27T06:44:03.392Z,78.86
2022-11-27T06:46:35.260Z,78.86
2022-11-27T06:49:07.394Z,78.38
2022-11-27T06:51:39.308Z,78.44
2022-11-27T06:54:11.192Z,78.43
2022-11-27T06:56:43.258Z,78.64
2022-11-27T06:59:15.682Z,78.70
2022-11-27T07:01:47.880Z,78.62
2022-11-27T07:04:19.846Z,78.90
2022-11-27T07:06:51.829Z,78.93
2022-11-27T07:09:23.845Z,78.86
2022-11-27T07:11:55.760Z,78.98
2022-11-27T07:14:27.694Z,78.96
2022-11-27T07:16:59.632Z,78.89
2022-11-27T07:19:31.909Z,79.20
2022-11-27T07:22:03.789Z,79.18
2022-11-27T07:24:35.862Z,78.65
2022-11-27T07:27:08.766Z,78.49
2022-11-27T07:29:40.702Z,78.83
2022-11-27T07:32:12.595Z,79.04
2022-11-27T07:34:44.476Z,79.03
2022-11-27T07:37:16.465Z,79.00
2022-11-27T07:40:02.490Z,79.01
2022-11-27T07:42:39.200Z,79.04
2022-11-27T07:45:14.063Z,79.07
2022-11-27T07:47:46.283Z,79.34
2022-11-27T07:50:18.195Z,79.17
2022-11-27T07:52:50.110Z,79.33
2022-11-27T07:55:22.075Z,79.38
2022-11-27T07:57:54.061Z,79.01
2022-11-27T08:00:26.108Z,79.04
2022-11-27T08:02:58.116Z,78.88
2022-11-27T08:05:30.181Z,78.99
2022-11-27T08:08:05.039Z,79.18
2022-11-27T08:10:37.692Z,79.12
2022-11-27T08:13:09.937Z,79.53
2022-11-27T08:15:41.953Z,79.78
2022-11-27T08:18:13.893Z,79.90
2022-11-27T08:20:45.828Z,79.83
2022-11-27T08:23:17.715Z,79.79
2022-11-27T08:25:49.652Z,79.83
2022-11-27T08:28:21.948Z,79.78
2022-11-27T08:31:00.287Z,79.57
2022-11-27T08:33:33.324Z,79.36
2022-11-27T08:36:09.022Z,79.53
2022-11-27T08:38:43.215Z,79.34
2022-11-27T08:41:15.592Z,79.44
2022-11-27T08:43:47.582Z,79.54
2022-11-27T08:46:19.761Z,79.90
2022-11-27T08:48:51.999Z,79.86
2022-11-27T08:51:24.348Z,80.12
2022-11-27T08:53:56.278Z,80.15
2022-11-27T08:56:28.445Z,80.11
2022-11-27T08:59:00.434Z,79.93
2022-11-27T09:01:33.624Z,79.90
2022-11-27T09:04:06.412Z,79.65
2022-11-27T09:06:39.501Z,79.69
2022-11-27T09:09:11.763Z,79.74
2022-11-27T09:11:43.961Z,79.61
2022-11-27T09:14:15.850Z,79.90
2022-11-27T09:16:48.012Z,79.97
2022-11-27T09:19:21.703Z,80.08
2022-11-27T09:21:53.762Z,80.28
2022-11-27T09:24:26.061Z,80.68
2022-11-27T09:26:58.123Z,80.28
2022-11-27T09:29:30.318Z,80.54
2022-11-27T09:32:02.382Z,80.70
2022-11-27T09:34:37.461Z,80.70
2022-11-27T09:37:10.304Z,80.04
2022-11-27T09:39:42.159Z,80.26
2022-11-27T09:42:34.639Z,80.11
2022-11-27T09:45:12.975Z,80.36
2022-11-27T09:47:50.404Z,80.31
2022-11-27T09:50:27.249Z,80.54
2022-11-27T09:53:02.568Z,80.69
2022-11-27T09:55:39.027Z,81.13
2022-11-27T09:58:19.747Z,81.31
2022-11-27T10:00:51.813Z,81.10
2022-11-27T10:03:27.536Z,81.03
2022-11-27T10:06:15.860Z,81.23
2022-11-27T10:08:59.779Z,81.56
2022-11-27T10:11:36.247Z,81.32
2022-11-27T10:14:20.602Z,81.05
2022-11-27T10:16:56.926Z,81.12
2022-11-27T10:19:36.895Z,80.89
2022-11-27T10:22:21.032Z,81.00
2022-11-27T10:25:04.373Z,81.07
2022-11-27T10:27:45.148Z,80.92
2022-11-27T10:30:19.799Z,81.42
2022-11-27T10:32:57.099Z,81.44
2022-11-27T10:35:31.822Z,81.58
2022-11-27T10:38:12.094Z,81.49
2022-11-27T10:40:46.979Z,81.50
2022-11-27T10:43:22.298Z,81.36
2022-11-27T10:45:58.369Z,81.32
2022-11-27T10:48:30.475Z,81.20
2022-11-27T10:51:02.411Z,81.10
2022-11-27T10:53:36.573Z,81.32
2022-11-27T10:56:31.782Z,81.40
2022-11-27T10:59:07.584Z,82.09
2022-11-27T11:01:47.550Z,82.15
2022-11-27T11:04:43.012Z,82.00
2022-11-27T11:07:27.542Z,81.95
2022-11-27T11:09:59.650Z,82.27
2022-11-27T11:12:31.922Z,82.13
2022-11-27T11:15:11.862Z,82.01
2022-11-27T11:17:43.756Z,81.95
2022-11-27T11:20:22.481Z,81.83
2022-11-27T11:22:54.678Z,81.80
2022-11-27T11:25:26.698Z,81.73
2022-11-27T11:27:58.907Z,81.93
2022-11-27T11:30:31.715Z,81.89
2022-11-27T11:33:05.396Z,82.46
2022-11-27T11:35:38.617Z,82.19
2022-11-27T11:38:20.177Z,82.46
2022-11-27T11:41:02.563Z,82.63
2022-11-27T11:43:36.520Z,82.95
2022-11-27T11:46:18.332Z,82.93
2022-11-27T11:48:58.955Z,82.24
2022-11-27T11:52:00.743Z,82.32
2022-11-27T11:54:50.268Z,82.81
2022-11-27T11:57:42.994Z,82.48
2022-11-27T12:00:18.023Z,82.52
2022-11-27T12:03:09.678Z,82.45
2022-11-27T12:05:55.441Z,82.54
2022-11-27T12:08:40.484Z,82.70
2022-11-27T12:11:18.438Z,82.90
2022-11-27T12:14:07.070Z,82.76
2022-11-27T12:16:51.629Z,83.03
2022-11-27T12:19:48.703Z,83.00
2022-11-27T12:22:37.339Z,82.93
2022-11-27T12:25:27.117Z,83.08
2022-11-27T12:28:12.903Z,82.38
2022-11-27T12:30:50.886Z,82.47
2022-11-27T12:33:51.571Z,82.23
2022-11-27T12:36:34.770Z,82.74
2022-11-27T12:39:16.822Z,82.53
2022-11-27T12:42:00.201Z,82.87
2022-11-27T12:44:44.711Z,82.81
2022-11-27T12:47:23.944Z,83.36
2022-11-27T12:50:00.720Z,83.11
2022-11-27T12:52:38.905Z,83.24
2022-11-27T12:55:16.832Z,83.09
2022-11-27T12:57:53.690Z,83.01
2022-11-27T13:00:29.490Z,82.84
2022-11-27T13:03:08.337Z,82.74
2022-11-27T13:05:46.267Z,82.70
2022-11-27T13:08:22.968Z,82.51
2022-11-27T13:10:59.922Z,82.70
2022-11-27T13:13:38.618Z,82.82
2022-11-27T13:16:18.920Z,82.98
2022-11-27T13:18:55.934Z,82.88
2022-11-27T13:21:32.197Z,82.93
2022-11-27T13:24:05.086Z,83.10
2022-11-27T13:26:41.706Z,83.13
2022-11-27T13:29:22.886Z,83.30
2022-11-27T13:31:58.913Z,82.65
2022-11-27T13:34:34.005Z,82.82
2022-11-27T13:37:06.941Z,82.60
2022-11-27T13:39:43.359Z,82.91
2022-11-27T13:42:22.828Z,82.62
2022-11-27T13:44:59.447Z,82.93
2022-11-27T13:47:41.423Z,83.35
2022-11-27T13:50:16.993Z,83.47
2022-11-27T13:53:00.074Z,83.67
2022-11-27T13:55:34.083Z,83.25
2022-11-27T13:58:08.295Z,83.36
2022-11-27T14:00:43.360Z,83.22
2022-11-27T14:03:24.867Z,83.22
2022-11-27T14:05:57.248Z,83.11
2022-11-27T14:08:32.250Z,82.98
2022-11-27T14:11:04.982Z,83.10
2022-11-27T14:13:40.505Z,83.19
2022-11-27T14:16:26.655Z,82.99
2022-11-27T14:19:01.481Z,82.89
2022-11-27T14:21:41.355Z,83.26
2022-11-27T14:24:41.066Z,83.38
2022-11-27T14:27:22.685Z,83.51
2022-11-27T14:29:54.957Z,83.48
2022-11-27T14:32:39.079Z,83.46
2022-11-27T14:35:24.916Z,83.53
2022-11-27T14:38:08.351Z,83.17
2022-11-27T14:40:40.644Z,82.94
2022-11-27T14:43:16.614Z,83.14
2022-11-27T14:45:50.819Z,83.33
2022-11-27T14:48:26.301Z,83.10
2022-11-27T14:50:59.201Z,82.93
2022-11-27T14:53:31.496Z,83.20
2022-11-27T14:56:04.971Z,83.37
2022-11-27T14:58:38.571Z,83.32
2022-11-27T15:01:22.799Z,83.72
2022-11-27T15:04:03.951Z,83.80
2022-11-27T15:06:40.805Z,83.91
2022-11-27T15:09:31.793Z,83.83
2022-11-27T15:12:16.041Z,83.63
2022-11-27T15:14:57.886Z,83.63
2022-11-27T15:17:32.025Z,83.67
2022-11-27T15:20:12.000Z,83.48
2022-11-27T15:22:51.541Z,83.46
2022-11-27T15:25:38.917Z,83.52
2022-11-27T15:28:29.571Z,83.63
2022-11-27T15:31:01.886Z,84.19
2022-11-27T15:33:35.006Z,84.23
2022-11-27T15:36:20.180Z,84.11
2022-11-27T15:38:52.378Z,84.22
2022-11-27T15:41:26.717Z,84.28
2022-11-27T15:43:58.768Z,84.30
2022-11-27T15:46:35.737Z,83.66
2022-11-27T15:49:10.210Z,83.83
2022-11-27T15:51:42.427Z,83.68
2022-11-27T15:54:14.469Z,83.60
2022-11-27T15:56:47.103Z,83.48
2022-11-27T15:59:20.796Z,83.68
2022-11-27T16:01:53.002Z,83.90
2022-11-27T16:04:24.959Z,84.16
2022-11-27T16:06:56.987Z,84.13
2022-11-27T16:09:29.271Z,84.55
2022-11-27T16:12:01.211Z,84.40
2022-11-27T16:14:33.203Z,84.53
2022-11-27T16:17:05.091Z,84.22
2022-11-27T16:19:37.024Z,83.79
2022-11-27T16:22:09.017Z,83.91
2022-11-27T16:24:42.376Z,84.33
2022-11-27T16:27:14.653Z,83.87
2022-11-27T16:29:46.615Z,84.09
2022-11-27T16:32:18.549Z,84.27
2022-11-27T16:34:52.490Z,84.26
2022-11-27T16:37:25.093Z,85.01
2022-11-27T16:39:58.234Z,84.75
2022-11-27T16:42:30.239Z,84.91
2022-11-27T16:45:02.626Z,84.94
2022-11-27T16:47:34.634Z,85.23
2022-11-27T16:50:09.915Z,84.81
2022-11-27T16:52:42.276Z,84.64
2022-11-27T16:55:14.801Z,84.17
2022-11-27T16:57:47.280Z,84.21
2022-11-27T17:00:22.076Z,84.02
2022-11-27T17:02:54.054Z,84.55
2022-11-27T17:05:26.110Z,84.54
2022-11-27T17:07:58.219Z,84.91
2022-11-27T17:10:30.652Z,85.07
2022-11-27T17:13:02.746Z,85.16
2022-11-27T17:15:40.542Z,85.24
2022-11-27T17:18:13.865Z,85.44
2022-11-27T17:20:46.011Z,85.48
2022-11-27T17:23:18.302Z,85.27
2022-11-27T17:25:51.188Z,84.74
2022-11-27T17:28:23.714Z,84.38
2022-11-27T17:30:55.677Z,84.74
2022-11-27T17:33:28.283Z,85.10
2022-11-27T17:36:00.272Z,85.07
2022-11-27T17:38:32.734Z,85.00
2022-11-27T17:41:06.604Z,84.86
2022-11-27T17:43:40.947Z,85.13
2022-11-27T17:46:17.386Z,85.30
2022-11-27T17:48:50.890Z,85.68
2022-11-27T17:51:24.059Z,85.63
2022-11-27T17:53:56.788Z,85.61
2022-11-27T17:56:29.187Z,85.46
2022-11-27T17:59:01.586Z,84.88
2022-11-27T18:01:34.889Z,84.83
2022-11-27T18:04:07.605Z,85.22
2022-11-27T18:06:41.777Z,85.21
2022-11-27T18:09:14.765Z,85.15
2022-11-27T18:11:46.912Z,85.00
2022-11-27T18:14:19.099Z,85.28
2022-11-27T18:16:51.070Z,85.45
2022-11-27T18:19:23.622Z,85.91
2022-11-27T18:21:55.527Z,86.05
2022-11-27T18:24:27.722Z,85.98
2022-11-27T18:27:09.109Z,85.57
2022-11-27T18:29:44.832Z,85.80
2022-11-27T18:32:18.756Z,85.37
2022-11-27T18:34:52.804Z,84.81
2022-11-27T18:37:25.007Z,84.89
2022-11-27T18:39:57.064Z,85.00
2022-11-27T18:42:30.694Z,85.41
2022-11-27T18:45:03.988Z,85.30
2022-11-27T18:47:36.051Z,85.64
2022-11-27T18:50:10.705Z,85.56
2022-11-27T18:52:43.204Z,85.73
2022-11-27T18:55:15.170Z,85.71
2022-11-27T18:57:47.669Z,85.82
2022-11-27T19:00:21.426Z,85.73
2022-11-27T19:02:54.775Z,85.40
2022-11-27T19:05:27.040Z,85.18
2022-11-27T19:08:04.509Z,85.37
2022-11-27T19:10:36.520Z,85.40
2022-11-27T19:13:08.817Z,85.32
2022-11-27T19:15:42.857Z,85.49
2022-11-27T19:18:15.614Z,85.45
2022-11-27T19:20:49.114Z,85.87
2022-11-27T19:23:21.409Z,86.02
2022-11-27T19:25:53.756Z,86.06
2022-11-27T19:28:25.720Z,86.11
2022-11-27T19:30:57.785Z,86.23
2022-11-27T19:33:30.260Z,86.02
2022-11-27T19:36:04.244Z,85.61
2022-11-27T19:38:36.913Z,85.57
2022-11-27T19:41:13.831Z,85.67
2022-11-27T19:43:47.357Z,85.49
2022-11-27T19:46:21.640Z,85.55
2022-11-27T19:48:57.788Z,85.50
2022-11-27T19:51:33.195Z,85.79
2022-11-27T19:54:10.288Z,86.02
2022-11-27T19:56:44.248Z,86.20
2022-11-27T19:59:21.395Z,86.16
2022-11-27T20:01:58.456Z,86.24
2022-11-27T20:04:31.837Z,86.11
2022-11-27T20:07:03.888Z,86.12
2022-11-27T20:09:36.098Z,86.29
2022-11-27T20:12:09.069Z,86.27
2022-11-27T20:14:41.572Z,85.58
2022-11-27T20:17:13.830Z,85.39
2022-11-27T20:19:45.948Z,85.25
2022-11-27T20:22:17.964Z,85.37
2022-11-27T20:25:17.169Z,85.55
2022-11-27T20:27:42.322Z,85.63
2022-11-27T20:30:16.457Z,85.80
2022-11-27T20:32:48.578Z,85.98
2022-11-27T20:35:20.734Z,86.12
2022-11-27T20:37:52.733Z,85.94
2022-11-27T20:40:25.911Z,86.07
2022-11-27T20:42:57.966Z,86.25
2022-11-27T20:45:29.886Z,86.17
2022-11-27T20:48:02.275Z,86.16
2022-11-27T20:50:34.955Z,85.26
2022-11-27T20:53:08.480Z,85.31
2022-11-27T20:55:40.473Z,85.29
2022-11-27T20:58:13.944Z,85.78
2022-11-27T21:00:46.059Z,85.65
2022-11-27T21:03:18.639Z,85.81
2022-11-27T21:05:51.651Z,85.78
2022-11-27T21:08:24.823Z,86.03
2022-11-27T21:10:57.191Z,86.38
2022-11-27T21:13:29.257Z,86.04
2022-11-27T21:16:02.193Z,86.12
2022-11-27T21:18:34.113Z,86.25
2022-11-27T21:21:12.519Z,85.91
2022-11-27T21:23:44.681Z,85.71
2022-11-27T21:26:16.891Z,85.34
2022-11-27T21:28:50.399Z,85.70
2022-11-27T21:31:24.657Z,85.73
2022-11-27T21:33:58.686Z,85.85
2022-11-27T21:36:33.337Z,85.72
2022-11-27T21:39:08.653Z,85.94
2022-11-27T21:41:40.644Z,86.23
2022-11-27T21:44:13.375Z,86.25
2022-11-27T21:46:45.620Z,86.49
2022-11-27T21:49:19.351Z,86.67
2022-11-27T21:51:54.958Z,86.55
2022-11-27T21:54:34.049Z,85.88
2022-11-27T21:57:06.429Z,86.11
2022-11-27T21:59:38.725Z,85.73
2022-11-27T22:02:13.211Z,85.68
2022-11-27T22:04:45.350Z,85.83
2022-11-27T22:07:17.344Z,86.02
2022-11-27T22:09:49.323Z,86.30
2022-11-27T22:12:21.460Z,86.47
2022-11-27T22:14:53.499Z,86.50
2022-11-27T22:17:25.513Z,86.35
2022-11-27T22:19:57.889Z,86.13
2022-11-27T22:22:30.977Z,86.07
2022-11-27T22:25:04.401Z,85.70
2022-11-27T22:27:36.363Z,85.51
2022-11-27T22:30:10.492Z,85.54
2022-11-27T22:32:43.042Z,85.28
2022-11-27T22:35:15.787Z,85.83
2022-11-27T22:37:47.877Z,85.72
2022-11-27T22:40:20.249Z,85.70
2022-11-27T22:42:53.084Z,85.98
2022-11-27T22:45:25.154Z,86.33
2022-11-27T22:47:57.268Z,86.35
2022-11-27T22:50:29.385Z,86.23
2022-11-27T22:53:01.321Z,86.09
2022-11-27T22:55:33.311Z,85.80
2022-11-27T22:58:05.304Z,85.64
2022-11-27T23:00:37.801Z,85.63
2022-11-27T23:03:09.804Z,85.64
2022-11-27T23:05:46.439Z,85.82
2022-11-27T23:08:19.097Z,85.58
2022-11-27T23:10:52.975Z,85.51
2022-11-27T23:13:24.913Z,86.02
2022-11-27T23:15:56.903Z,86.08
2022-11-27T23:18:28.840Z,86.23
2022-11-27T23:21:00.957Z,86.42
2022-11-27T23:23:33.074Z,86.52
2022-11-27T23:26:07.445Z,86.37
2022-11-27T23:28:39.905Z,86.19
2022-11-27T23:31:29.596Z,85.81
2022-11-27T23:34:04.482Z,85.62
2022-11-27T23:36:37.189Z,85.60
2022-11-27T23:39:12.299Z,85.58
2022-11-27T23:41:44.698Z,85.73
2022-11-27T23:44:16.612Z,85.97
2022-11-27T23:46:49.213Z,85.82
2022-11-27T23:49:21.485Z,86.26
2022-11-27T23:51:53.422Z,86.52
2022-11-27T23:54:25.282Z,86.62
2022-11-27T23:56:57.451Z,86.43
2022-11-27T23:59:29.415Z,86.47
